EST,Max TemperatureF,Mean TemperatureF,Min TemperatureF,Max Dew PointF,MeanDew PointF,Min DewpointF,Max Humidity, Mean Humidity, Min Humidity, Max Sea Level PressureIn, Mean Sea Level PressureIn, Min Sea Level PressureIn, Max VisibilityMiles, Mean VisibilityMiles, Min VisibilityMiles, Max Wind SpeedMPH, Mean Wind SpeedMPH, Max Gust SpeedMPH,PrecipitationIn, CloudCover, Events, WindDirDegrees
2013-1-1,58,53,48,54,48,40,93,78,62,30.13,30.04,29.97,10,8,2,16,6,22,0.05,7,Rain,252
2013-1-2,53,47,41,52,46,37,100,91,82,30.21,30.03,29.94,10,5,0,14,7,18,0.43,7,Fog-Rain,41
2013-1-3,43,38,32,36,34,31,86,77,67,30.27,30.21,30.16,10,10,8,12,5,15,0.01,5,Rain,32
2013-1-4,52,40,28,32,29,27,92,65,38,30.33,30.27,30.20,10,7,1,14,4,20,0.00,1,,266
2013-1-5,53,41,28,34,27,23,85,59,32,30.40,30.34,30.28,10,10,10,9,2,12,0.00,0,,331
2013-1-6,48,44,40,45,42,34,93,82,70,30.30,30.16,30.09,10,7,2,10,2,15,0.04,8,Rain,259
2013-1-7,54,44,33,43,35,32,96,71,45,30.47,30.33,30.15,10,10,7,16,6,20,0.00,1,,18
2013-1-8,62,50,37,48,41,32,93,81,58,30.46,30.41,30.37,10,7,0,9,3,,0.00,1,Fog,100
2013-1-9,73,56,38,55,44,37,100,75,49,30.45,30.39,30.37,10,5,0,5,0,6,T,2,Fog,153
2013-1-10,65,55,45,52,45,35,100,67,34,30.54,30.45,30.42,10,5,0,13,5,17,0.00,0,Fog,72
2013-1-11,71,58,44,64,57,36,93,77,61,30.45,30.25,30.17,10,6,0,15,5,23,0.20,6,Fog-Rain,176
2013-1-12,76,64,52,64,58,51,100,82,64,30.19,30.15,30.12,10,4,0,9,3,12,0.00,2,Fog,238
2013-1-13,77,67,56,62,59,55,100,80,60,30.19,30.15,30.11,10,6,0,12,4,17,0.00,1,Fog,197
2013-1-14,79,66,53,63,60,52,100,77,54,30.20,30.16,30.13,10,9,5,14,6,23,0.00,0,,201
2013-1-15,63,58,52,59,54,50,97,89,80,30.22,30.16,30.09,10,6,0,14,5,17,T,6,Fog,55
2013-1-16,79,66,52,65,57,51,100,78,56,30.09,30.03,29.96,10,7,0,17,5,23,0.00,3,Fog,203
2013-1-17,60,52,43,58,50,39,100,93,86,30.01,29.96,29.86,10,3,0,32,9,40,0.50,6,Fog-Rain,36
2013-1-18,49,42,35,39,32,26,85,64,42,30.55,30.37,30.00,10,10,10,20,8,26,0.01,2,Rain,4
2013-1-19,62,46,29,42,33,24,92,65,38,30.53,30.38,30.21,10,8,0,9,1,13,0.00,0,Fog,223
2013-1-20,67,53,38,43,39,31,93,60,26,30.18,30.09,30.00,10,10,10,17,5,24,0.00,0,,241
2013-1-21,66,49,31,43,37,29,92,63,34,30.09,30.01,29.89,10,9,2,16,5,23,0.00,0,,211
2013-1-22,50,40,29,31,14,7,54,37,20,30.31,30.16,29.96,10,10,10,18,8,24,0.00,0,,339
2013-1-23,42,33,24,22,10,1,59,40,21,30.40,30.30,30.14,10,10,10,13,5,18,0.00,0,,315
2013-1-24,41,33,25,31,18,6,70,51,32,30.54,30.26,30.00,10,10,10,28,12,37,0.00,0,,344
2013-1-25,35,29,22,31,21,9,92,68,43,30.54,30.30,30.14,10,7,2,12,6,15,0.23,5,Rain,19
2013-1-26,34,32,29,31,29,25,92,87,82,30.42,30.26,30.14,10,5,2,10,4,12,0.00,6,,357
2013-1-27,42,35,27,29,27,25,92,71,49,30.61,30.54,30.43,10,7,2,14,5,18,0.00,3,,25
2013-1-28,58,43,27,55,41,24,93,77,61,30.53,30.39,30.27,10,10,9,12,3,18,T,6,Rain,222
2013-1-29,76,64,52,57,54,49,93,72,50,30.25,30.20,30.14,10,8,5,8,7,12,0.00,1,,240
2013-1-30,76,68,59,63,62,57,93,77,60,30.14,29.88,29.61,10,10,7,31,16,46,0.01,5,Rain,192
2013-1-31,71,55,38,64,48,21,84,55,26,29.95,29.67,29.52,10,8,1,35,14,54,0.35,6,Rain,248